Corcovado — 9HA3971 — position and weather

sailwx.info

Track history (hours):
 
Tides and Currents Weather Stations Pressure Air Temp Water Temp Dewpoint Dewpoint Depression Visibility Wind Speed Wind Dir Waves Ship Positions

Corcovado

Last reported at 2017-Nov-16 12:57 UTC. Time now 2017-Nov-18 01:05 UTC.
Position N 09°40' W 016°40'.

Length 207 m; draft 10.3 m.

Type: Cargo ship. MMSI: 256634000.

Date/timePositionNaut miles runAvg speedWind from/ knotsBaromVisibWave heightAir tempDewpointWater temp
2017-Nov-16 12:57N 09°40' W 016°40'4 8.2
2017-Nov-16 12:30N 09°43' W 016°42'5 7.9
2017-Nov-16 11:54N 09°46' W 016°46'3 7.3
2017-Nov-16 11:29N 09°48' W 016°48'7 8.0
2017-Nov-16 10:37N 09°53' W 016°53'1211.6
2017-Nov-16 09:37N 10°01' W 017°01'217.6
2017-Nov-16 09:29N 10°03' W 017°02'  
2017-Nov-11 04:58N 23°54' W 017°10'19114.9
2017-Nov-10 16:06N 26°32' W 015°12'415.1
2017-Nov-10 15:50N 26°35' W 015°09'814.9
2017-Nov-10 15:18N 26°41' W 015°03'714.6
2017-Nov-10 14:49N 26°46' W 014°57'514.7
2017-Nov-10 14:29N 26°50' W 014°53'1314.7
2017-Nov-10 13:38N 26°59' W 014°44'314.8
2017-Nov-10 13:27N 27°01' W 014°42'714.8
2017-Nov-10 13:00N 27°06' W 014°37'714.8
2017-Nov-10 12:30N 27°11' W 014°31'815.3
2017-Nov-10 12:00N 27°16' W 014°25'815.5
2017-Nov-10 11:30N 27°22' W 014°19'816.1
2017-Nov-10 11:00N 27°28' W 014°12'816.4
2017-Nov-10 10:30N 27°33' W 014°06'816.2
2017-Nov-10 10:00N 27°39' W 013°60'815.8
2017-Nov-10 09:30N 27°45' W 013°53'815.6
2017-Nov-10 09:00N 27°50' W 013°47'815.4
2017-Nov-10 08:30N 27°56' W 013°41'815.3
2017-Nov-10 08:00N 28°01' W 013°35'915.0
2017-Nov-10 07:26N 28°07' W 013°28'815.2
2017-Nov-10 06:53N 28°15' W 013°24'614.9
2017-Nov-10 06:27N 28°20' W 013°20'714.7
2017-Nov-10 06:00N 28°26' W 013°17'815.0
2017-Nov-10 05:30N 28°33' W 013°12'815.2
2017-Nov-10 05:00N 28°39' W 013°08'715.0
2017-Nov-10 04:30N 28°45' W 013°03'714.6
2017-Nov-10 04:00N 28°52' W 012°59'714.4
2017-Nov-10 03:30N 28°58' W 012°55'714.3
2017-Nov-10 03:00N 29°04' W 012°51'714.6
2017-Nov-10 02:30N 29°10' W 012°47'714.7
2017-Nov-10 02:00N 29°17' W 012°42'714.6
2017-Nov-10 01:30N 29°23' W 012°38'714.7
2017-Nov-10 01:00N 29°29' W 012°34'714.9
2017-Nov-10 00:30N 29°36' W 012°30'815.3
2017-Nov-10 00:00N 29°43' W 012°25'815.2
2017-Nov-09 23:30N 29°50' W 012°22'914.8
2017-Nov-09 22:53N 29°57' W 012°16'5415.3
2017-Nov-09 19:21N 30°44' W 011°44'615.6
2017-Nov-09 18:59N 30°49' W 011°41'815.6
2017-Nov-09 18:30N 30°55' W 011°37'815.6
2017-Nov-09 18:00N 31°02' W 011°32'815.8
2017-Nov-09 17:30N 31°09' W 011°27'8215.5
2017-Nov-09 12:13N 32°20' W 010°38'514.6
2017-Nov-09 11:54N 32°24' W 010°36'614.4
2017-Nov-09 11:28N 32°29' W 010°32'714.6
2017-Nov-09 11:00N 32°35' W 010°28'714.7
2017-Nov-09 10:30N 32°41' W 010°24'3715.1
2017-Nov-09 08:05N 33°13' W 010°01'415.1
2017-Nov-09 07:51N 33°16' W 009°59'615.2
2017-Nov-09 07:29N 33°19' W 009°54'715.1
2017-Nov-09 07:00N 33°24' W 009°47'1615.1
2017-Nov-09 05:59N 33°33' W 009°32'715.0
2017-Nov-09 05:30N 33°37' W 009°26'915.2
2017-Nov-09 04:56N 33°43' W 009°17'815.5
2017-Nov-09 04:27N 33°48' W 009°10'232 6.2
2017-Nov-07 14:48N 36°09' W 005°26'0 0.0
2017-Nov-07 13:36N 36°09' W 005°26'0 0.0
2017-Nov-07 13:27N 36°09' W 005°26'0 0.0
2017-Nov-07 13:00N 36°09' W 005°26'0 0.0
2017-Nov-07 12:15N 36°09' W 005°26'0 0.0
2017-Nov-07 12:00N 36°09' W 005°26'0 0.0
2017-Nov-07 11:18N 36°09' W 005°26'0 0.0
2017-Nov-07 11:00N 36°09' W 005°26'0 0.0
2017-Nov-07 10:30N 36°09' W 005°26'0 0.0
2017-Nov-07 10:00N 36°09' W 005°26'0 0.0
2017-Nov-07 09:30N 36°09' W 005°26'0 0.0
2017-Nov-07 08:42N 36°09' W 005°26'  
Track history (hours):
 
Tides and Currents Weather Stations Pressure Air Temp Water Temp Dewpoint Dewpoint Depression Visibility Wind Speed Wind Dir Waves Ship Positions

Corcovado

Last reported at 2017-Nov-16 12:57 UTC. Time now 2017-Nov-18 01:05 UTC.
Position N 09°40' W 016°40'.

Length 207 m; draft 10.3 m.

Type: Cargo ship. MMSI: 256634000.

Date/timePositionNaut miles runAvg speedWind from/ knotsBaromVisibWave heightAir tempDewpointWater temp
2017-Nov-16 12:57N 09°40' W 016°40'4 8.2
2017-Nov-16 12:30N 09°43' W 016°42'5 7.9
2017-Nov-16 11:54N 09°46' W 016°46'3 7.3
2017-Nov-16 11:29N 09°48' W 016°48'7 8.0
2017-Nov-16 10:37N 09°53' W 016°53'1211.6
2017-Nov-16 09:37N 10°01' W 017°01'217.6
2017-Nov-16 09:29N 10°03' W 017°02'  
2017-Nov-11 04:58N 23°54' W 017°10'19114.9
2017-Nov-10 16:06N 26°32' W 015°12'415.1
2017-Nov-10 15:50N 26°35' W 015°09'814.9
2017-Nov-10 15:18N 26°41' W 015°03'714.6
2017-Nov-10 14:49N 26°46' W 014°57'514.7
2017-Nov-10 14:29N 26°50' W 014°53'1314.7
2017-Nov-10 13:38N 26°59' W 014°44'314.8
2017-Nov-10 13:27N 27°01' W 014°42'714.8
2017-Nov-10 13:00N 27°06' W 014°37'714.8
2017-Nov-10 12:30N 27°11' W 014°31'815.3
2017-Nov-10 12:00N 27°16' W 014°25'815.5
2017-Nov-10 11:30N 27°22' W 014°19'816.1
2017-Nov-10 11:00N 27°28' W 014°12'816.4
2017-Nov-10 10:30N 27°33' W 014°06'816.2
2017-Nov-10 10:00N 27°39' W 013°60'815.8
2017-Nov-10 09:30N 27°45' W 013°53'815.6
2017-Nov-10 09:00N 27°50' W 013°47'815.4
2017-Nov-10 08:30N 27°56' W 013°41'815.3
2017-Nov-10 08:00N 28°01' W 013°35'915.0
2017-Nov-10 07:26N 28°07' W 013°28'815.2
2017-Nov-10 06:53N 28°15' W 013°24'614.9
2017-Nov-10 06:27N 28°20' W 013°20'714.7
2017-Nov-10 06:00N 28°26' W 013°17'815.0
2017-Nov-10 05:30N 28°33' W 013°12'815.2
2017-Nov-10 05:00N 28°39' W 013°08'715.0
2017-Nov-10 04:30N 28°45' W 013°03'714.6
2017-Nov-10 04:00N 28°52' W 012°59'714.4
2017-Nov-10 03:30N 28°58' W 012°55'714.3
2017-Nov-10 03:00N 29°04' W 012°51'714.6
2017-Nov-10 02:30N 29°10' W 012°47'714.7
2017-Nov-10 02:00N 29°17' W 012°42'714.6
2017-Nov-10 01:30N 29°23' W 012°38'714.7
2017-Nov-10 01:00N 29°29' W 012°34'714.9
2017-Nov-10 00:30N 29°36' W 012°30'815.3
2017-Nov-10 00:00N 29°43' W 012°25'815.2
2017-Nov-09 23:30N 29°50' W 012°22'914.8
2017-Nov-09 22:53N 29°57' W 012°16'5415.3
2017-Nov-09 19:21N 30°44' W 011°44'615.6
2017-Nov-09 18:59N 30°49' W 011°41'815.6
2017-Nov-09 18:30N 30°55' W 011°37'815.6
2017-Nov-09 18:00N 31°02' W 011°32'815.8
2017-Nov-09 17:30N 31°09' W 011°27'8215.5
2017-Nov-09 12:13N 32°20' W 010°38'514.6
2017-Nov-09 11:54N 32°24' W 010°36'614.4
2017-Nov-09 11:28N 32°29' W 010°32'714.6
2017-Nov-09 11:00N 32°35' W 010°28'714.7
2017-Nov-09 10:30N 32°41' W 010°24'3715.1
2017-Nov-09 08:05N 33°13' W 010°01'415.1
2017-Nov-09 07:51N 33°16' W 009°59'615.2
2017-Nov-09 07:29N 33°19' W 009°54'715.1
2017-Nov-09 07:00N 33°24' W 009°47'1615.1
2017-Nov-09 05:59N 33°33' W 009°32'715.0
2017-Nov-09 05:30N 33°37' W 009°26'915.2
2017-Nov-09 04:56N 33°43' W 009°17'815.5
2017-Nov-09 04:27N 33°48' W 009°10'232 6.2
2017-Nov-07 14:48N 36°09' W 005°26'0 0.0
2017-Nov-07 13:36N 36°09' W 005°26'0 0.0
2017-Nov-07 13:27N 36°09' W 005°26'0 0.0
2017-Nov-07 13:00N 36°09' W 005°26'0 0.0
2017-Nov-07 12:15N 36°09' W 005°26'0 0.0
2017-Nov-07 12:00N 36°09' W 005°26'0 0.0
2017-Nov-07 11:18N 36°09' W 005°26'0 0.0
2017-Nov-07 11:00N 36°09' W 005°26'0 0.0
2017-Nov-07 10:30N 36°09' W 005°26'0 0.0
2017-Nov-07 10:00N 36°09' W 005°26'0 0.0
2017-Nov-07 09:30N 36°09' W 005°26'0 0.0
2017-Nov-07 08:42N 36°09' W 005°26'  

Dump ship's entire track history